Time;durP1;ratioP1;P1;durP2;ratioP2;P2;SDS_P1;SDS_P2;PMS_P1;PMS_P2;Temp;Humidity;BMP_temperature;BMP_pressure;BME280_temperature;BME280_humidity;BME280_pressure;Samples;Min_cycle;Max_cycle;Signal;HPM_P1;HPM_P2
2022/04/02 00:00:17;;;;;;;19.90;14.93;;;0.30;99.90;;;;;;5017310;28;20234;-79
2022/04/02 00:02:45;;;;;;;15.35;13.80;;;0.30;99.90;;;;;;5018207;28;20227;-80
2022/04/02 00:05:12;;;;;;;15.05;13.05;;;0.40;99.90;;;;;;5018489;28;20203;-79
2022/04/02 00:07:40;;;;;;;19.00;14.63;;;0.20;99.90;;;;;;5016878;28;20203;-79
2022/04/02 00:10:08;;;;;;;18.23;16.42;;;0.30;99.90;;;;;;5017163;28;20255;-80
2022/04/02 00:12:35;;;;;;;18.30;16.45;;;0.30;99.90;;;;;;5017246;28;20209;-79
2022/04/02 00:15:02;;;;;;;21.85;16.52;;;0.30;99.90;;;;;;5017523;28;20210;-80
2022/04/02 00:17:28;;;;;;;19.17;15.80;;;0.30;99.90;;;;;;5017153;28;20218;-78
2022/04/02 00:19:55;;;;;;;16.30;14.75;;;0.30;99.90;;;;;;5014164;28;20236;-77
2022/04/02 00:22:22;;;;;;;21.85;16.85;;;0.30;99.90;;;;;;5014099;28;20215;-79
2022/04/02 00:24:50;;;;;;;21.27;16.85;;;0.30;99.90;;;;;;5014389;28;20234;-78
2022/04/02 00:27:16;;;;;;;21.45;18.52;;;0.30;99.90;;;;;;5014136;28;20633;-78
2022/04/02 00:29:43;;;;;;;25.27;18.95;;;0.30;99.90;;;;;;5014393;28;20235;-77
2022/04/02 00:32:10;;;;;;;25.20;18.63;;;0.40;99.90;;;;;;5014019;28;20214;-79
2022/04/02 00:34:37;;;;;;;21.00;17.10;;;0.40;99.90;;;;;;5014019;28;20702;-78
2022/04/02 00:37:04;;;;;;;21.88;17.67;;;0.40;99.90;;;;;;5013943;28;20203;-77
2022/04/02 00:39:31;;;;;;;23.75;19.35;;;0.30;99.90;;;;;;5014207;28;20227;-78
2022/04/02 00:41:59;;;;;;;18.38;16.10;;;0.40;99.90;;;;;;5013325;28;20253;-76
2022/04/02 00:44:26;;;;;;;22.40;17.15;;;0.30;99.90;;;;;;5013812;28;20230;-77
2022/04/02 00:46:53;;;;;;;19.67;16.10;;;0.30;99.90;;;;;;5014056;28;20223;-78
2022/04/02 00:49:21;;;;;;;21.63;18.02;;;0.30;99.90;;;;;;5012723;28;20263;-78
2022/04/02 00:51:50;;;;;;;13.10;10.32;;;0.30;99.90;;;;;;5013631;28;20207;-78
2022/04/02 00:54:19;;;;;;;20.88;17.60;;;0.20;99.90;;;;;;5013735;28;20251;-78
2022/04/02 00:56:47;;;;;;;20.40;16.67;;;0.20;99.90;;;;;;5013472;28;20210;-77
2022/04/02 00:59:15;;;;;;;21.67;19.27;;;0.20;99.90;;;;;;5013581;28;20223;-77
2022/04/02 01:01:44;;;;;;;21.17;17.27;;;0.30;99.90;;;;;;5013348;28;20199;-77
2022/04/02 01:04:11;;;;;;;21.80;17.00;;;0.30;99.90;;;;;;5013723;28;20294;-78
2022/04/02 01:06:39;;;;;;;25.25;18.08;;;0.40;99.90;;;;;;5013426;28;20616;-78
2022/04/02 01:09:05;;;;;;;25.40;19.15;;;0.50;99.90;;;;;;5013476;28;20235;-77
2022/04/02 01:11:36;;;;;;;25.45;19.15;;;0.50;99.90;;;;;;5013229;28;20669;-78
2022/04/02 01:14:03;;;;;;;26.90;21.05;;;0.50;99.90;;;;;;5013731;28;20211;-79
2022/04/02 01:16:32;;;;;;;22.63;18.48;;;0.60;99.90;;;;;;5013273;28;20209;-78
2022/04/02 01:18:59;;;;;;;29.95;20.23;;;0.60;99.90;;;;;;5013287;28;20238;-78
2022/04/02 01:21:27;;;;;;;21.63;19.30;;;0.60;99.90;;;;;;5012893;28;20215;-80
2022/04/02 01:23:55;;;;;;;27.60;19.77;;;0.60;99.90;;;;;;5013163;28;20228;-78
2022/04/02 01:26:22;;;;;;;26.63;19.75;;;0.70;99.90;;;;;;5013290;28;20207;-78
2022/04/02 01:28:53;;;;;;;27.33;20.60;;;0.70;99.90;;;;;;5013356;28;20236;-78
2022/04/02 01:31:21;;;;;;;28.20;20.92;;;0.70;99.90;;;;;;5012838;28;20207;-78
2022/04/02 01:33:49;;;;;;;24.38;18.30;;;0.80;99.90;;;;;;5013187;28;20221;-78
2022/04/02 01:36:17;;;;;;;26.30;18.80;;;0.90;99.90;;;;;;5012802;28;20601;-78
2022/04/02 01:38:45;;;;;;;20.88;17.90;;;0.90;99.90;;;;;;5012746;28;20231;-79
2022/04/02 01:41:13;;;;;;;27.05;20.17;;;0.90;99.90;;;;;;5012706;28;20207;-78
2022/04/02 01:43:40;;;;;;;18.42;14.27;;;0.90;99.90;;;;;;5013054;28;20231;-78
2022/04/02 01:46:08;;;;;;;15.65;14.05;;;0.80;99.90;;;;;;5012893;28;20218;-78
2022/04/02 01:48:35;;;;;;;22.75;19.48;;;0.70;99.90;;;;;;5022396;28;20231;-79
2022/04/02 01:51:01;;;;;;;25.50;21.02;;;0.60;99.90;;;;;;5024750;28;20204;-79
2022/04/02 01:53:29;;;;;;;20.73;17.30;;;0.60;99.90;;;;;;5024464;28;20212;-78
2022/04/02 01:55:56;;;;;;;28.52;20.58;;;0.60;99.90;;;;;;5024340;28;20207;-80
2022/04/02 01:58:24;;;;;;;23.30;17.88;;;0.60;99.90;;;;;;5024489;28;20238;-78
2022/04/02 02:00:51;;;;;;;23.85;18.90;;;0.50;99.90;;;;;;5023174;28;20199;-79
2022/04/02 02:03:18;;;;;;;16.30;14.57;;;0.50;99.90;;;;;;5025363;28;20226;-79
2022/04/02 02:05:45;;;;;;;22.30;19.30;;;0.40;99.90;;;;;;5025439;28;20219;-78
2022/04/02 02:08:11;;;;;;;23.38;17.85;;;0.50;99.90;;;;;;5025014;28;20215;-79
2022/04/02 02:10:38;;;;;;;20.95;17.45;;;0.60;99.90;;;;;;5023889;28;20200;-79
2022/04/02 02:13:05;;;;;;;26.35;18.42;;;0.60;99.90;;;;;;5024792;28;20210;-78
2022/04/02 02:15:33;;;;;;;23.75;16.77;;;0.70;99.90;;;;;;5025002;28;20199;-79
2022/04/02 02:18:00;;;;;;;24.45;18.60;;;0.60;99.90;;;;;;5025129;28;20207;-79
2022/04/02 02:20:26;;;;;;;14.20;13.00;;;0.60;99.90;;;;;;5024983;28;20214;-79
2022/04/02 02:22:53;;;;;;;23.88;18.23;;;0.60;99.90;;;;;;5025062;28;20587;-79
2022/04/02 02:25:21;;;;;;;17.70;13.82;;;0.60;99.90;;;;;;5025424;28;20211;-79
2022/04/02 02:27:47;;;;;;;19.08;15.15;;;0.60;99.90;;;;;;5025626;28;20276;-77
2022/04/02 02:30:15;;;;;;;19.25;15.50;;;0.60;99.90;;;;;;5024843;28;20219;-79
2022/04/02 02:32:45;;;;;;;17.65;15.90;;;0.70;99.90;;;;;;5025732;28;20689;-79
2022/04/02 02:38:06;;;;;;;22.33;17.45;;;0.70;99.90;;;;;;5026422;28;20226;-78
2022/04/02 02:40:33;;;;;;;23.73;18.70;;;0.60;99.90;;;;;;5006029;28;20207;-78
2022/04/02 02:43:00;;;;;;;21.02;15.23;;;0.60;99.90;;;;;;5006847;28;20208;-78
2022/04/02 02:45:27;;;;;;;20.38;16.83;;;0.60;99.90;;;;;;5026281;28;20225;-79
2022/04/02 02:47:56;;;;;;;21.63;15.95;;;0.60;99.90;;;;;;5026425;28;20209;-79
2022/04/02 02:50:22;;;;;;;23.67;18.20;;;0.60;99.90;;;;;;5024711;28;20223;-79
2022/04/02 02:52:49;;;;;;;18.92;16.95;;;0.60;99.90;;;;;;5025132;28;20211;-79
2022/04/02 02:55:16;;;;;;;15.65;13.20;;;0.70;99.90;;;;;;5025164;28;20222;-79
2022/04/02 02:57:44;;;;;;;19.30;17.10;;;0.70;99.90;;;;;;5024923;28;20217;-80
2022/04/02 03:00:13;;;;;;;17.65;15.88;;;0.70;99.90;;;;;;5024358;28;20225;-79
2022/04/02 03:02:40;;;;;;;14.55;12.95;;;0.70;99.90;;;;;;5025012;28;20206;-78
2022/04/02 03:05:11;;;;;;;18.52;14.70;;;0.50;99.90;;;;;;5025136;28;20223;-80
2022/04/02 03:07:41;;;;;;;18.25;16.35;;;0.50;99.90;;;;;;5024735;28;20661;-79
2022/04/02 03:10:09;;;;;;;17.67;14.35;;;0.60;99.90;;;;;;5025922;28;20728;-78
2022/04/02 03:12:36;;;;;;;17.88;15.20;;;0.60;99.90;;;;;;5029241;28;20195;-80
2022/04/02 03:15:02;;;;;;;21.42;17.50;;;0.60;99.90;;;;;;5030064;28;20211;-78
2022/04/02 03:17:31;;;;;;;18.85;16.13;;;0.60;99.90;;;;;;5028824;28;20219;-79
2022/04/02 03:19:58;;;;;;;17.75;15.55;;;0.70;99.90;;;;;;5057956;22;20234;-79
2022/04/02 03:22:27;;;;;;;11.80;10.48;;;0.70;99.90;;;;;;5036927;28;20260;-79
2022/04/02 03:24:54;;;;;;;19.95;15.85;;;0.70;99.90;;;;;;5036907;28;20219;-79
2022/04/02 03:27:21;;;;;;;17.98;14.60;;;0.90;99.90;;;;;;5036421;28;20219;-79
2022/04/02 03:29:48;;;;;;;17.90;16.17;;;0.90;99.90;;;;;;5036848;28;20251;-80
2022/04/02 03:32:15;;;;;;;20.30;14.70;;;0.80;99.90;;;;;;5024809;28;20215;-79
2022/04/02 03:34:41;;;;;;;18.38;15.73;;;0.70;99.90;;;;;;5016334;28;20199;-80
2022/04/02 03:37:08;;;;;;;15.73;13.88;;;0.70;99.90;;;;;;5028569;28;20215;-79
2022/04/02 03:39:36;;;;;;;17.00;15.18;;;0.70;99.90;;;;;;5037196;28;20243;-79
2022/04/02 03:42:04;;;;;;;18.58;13.52;;;0.80;99.90;;;;;;5027208;28;20264;-78
2022/04/02 03:44:31;;;;;;;18.65;14.25;;;0.70;99.90;;;;;;5016957;28;20232;-79
2022/04/02 03:47:10;;;;;;;17.73;13.25;;;0.70;99.90;;;;;;5023926;28;20219;-79
2022/04/02 03:49:37;;;;;;;15.18;13.63;;;0.70;99.90;;;;;;5026459;28;20239;-80
2022/04/02 03:52:04;;;;;;;18.23;13.60;;;0.80;99.90;;;;;;5015722;28;20211;-80
2022/04/02 03:54:32;;;;;;;18.33;13.38;;;0.80;99.90;;;;;;5005639;28;20235;-80
2022/04/02 03:57:00;;;;;;;15.23;12.02;;;0.70;99.90;;;;;;5021921;28;20203;-80
2022/04/02 03:59:26;;;;;;;12.88;10.57;;;0.70;99.90;;;;;;5032801;28;20224;-79
2022/04/02 04:01:53;;;;;;;12.85;11.55;;;0.60;99.90;;;;;;5014457;28;20218;-79
2022/04/02 04:04:20;;;;;;;18.50;13.93;;;0.60;99.90;;;;;;5011819;28;20234;-80
2022/04/02 04:06:47;;;;;;;15.05;12.48;;;0.60;99.90;;;;;;5028050;28;20200;-80
2022/04/02 04:09:14;;;;;;;13.70;11.57;;;0.50;99.90;;;;;;5022253;28;20295;-79
2022/04/02 04:11:41;;;;;;;14.05;12.55;;;0.50;99.90;;;;;;5009877;28;20209;-81
2022/04/02 04:14:09;;;;;;;15.63;13.63;;;0.40;99.90;;;;;;5014950;28;20203;-80
2022/04/02 04:16:36;;;;;;;13.55;11.90;;;0.50;99.90;;;;;;5025586;28;20263;-79
2022/04/02 04:19:03;;;;;;;15.68;13.23;;;0.50;99.90;;;;;;5025919;28;20614;-81
2022/04/02 04:21:30;;;;;;;12.88;11.48;;;0.50;99.90;;;;;;5023211;28;20199;-80
2022/04/02 04:23:57;;;;;;;13.82;10.63;;;0.50;99.90;;;;;;5006014;28;20235;-80
2022/04/02 04:26:23;;;;;;;14.68;11.48;;;0.40;99.90;;;;;;5005010;28;20219;-81
2022/04/02 04:28:50;;;;;;;13.30;10.98;;;0.50;99.90;;;;;;5020695;28;20727;-80
2022/04/02 04:31:18;;;;;;;14.65;11.73;;;0.50;99.90;;;;;;5022265;28;20210;-80
2022/04/02 04:33:46;;;;;;;12.77;11.45;;;0.50;99.90;;;;;;5006776;28;20204;-80
2022/04/02 04:36:12;;;;;;;12.82;11.45;;;0.40;99.90;;;;;;5005596;28;20216;-80
2022/04/02 04:38:39;;;;;;;13.00;11.70;;;0.40;99.90;;;;;;5025131;28;20200;-80
2022/04/02 04:41:06;;;;;;;13.65;11.30;;;0.40;99.90;;;;;;5021442;28;20206;-80
2022/04/02 04:43:34;;;;;;;12.02;10.80;;;0.40;99.90;;;;;;4999376;28;20208;-80
2022/04/02 04:46:03;;;;;;;10.95;9.90;;;0.50;99.90;;;;;;5008854;28;20233;-80
2022/04/02 04:48:31;;;;;;;16.05;12.13;;;0.50;99.90;;;;;;5021555;28;20206;-80
2022/04/02 04:50:58;;;;;;;16.30;11.77;;;0.50;99.90;;;;;;5001244;28;20208;-80
2022/04/02 04:53:25;;;;;;;11.73;10.40;;;0.50;99.90;;;;;;5005011;28;20223;-80
2022/04/02 04:55:51;;;;;;;12.70;10.55;;;0.50;99.90;;;;;;5020686;28;20199;-80
2022/04/02 04:58:18;;;;;;;11.18;10.10;;;0.40;99.90;;;;;;5022214;28;20210;-80
2022/04/02 05:00:45;;;;;;;14.50;11.57;;;0.50;99.90;;;;;;5007689;28;20737;-80
2022/04/02 05:03:12;;;;;;;10.45;9.23;;;0.50;99.90;;;;;;5009331;28;20204;-80
2022/04/02 05:05:40;;;;;;;11.27;8.38;;;0.40;99.90;;;;;;5019572;28;20230;-80
2022/04/02 05:08:07;;;;;;;6.13;5.20;;;0.30;99.90;;;;;;5032462;28;20249;-80
2022/04/02 05:10:35;;;;;;;13.05;11.60;;;0.20;99.90;;;;;;5025059;28;20231;-80
2022/04/02 05:13:03;;;;;;;12.80;11.50;;;0.20;99.90;;;;;;5030607;28;20193;-80
2022/04/02 05:15:29;;;;;;;15.40;10.93;;;0.20;99.90;;;;;;5036053;28;20187;-79
2022/04/02 05:17:57;;;;;;;12.80;11.60;;;0.20;99.90;;;;;;5037174;28;20184;-79
2022/04/02 05:20:24;;;;;;;13.32;11.75;;;0.20;99.90;;;;;;5038031;28;20235;-79
2022/04/02 05:22:52;;;;;;;14.57;11.38;;;0.30;99.90;;;;;;5030262;28;20197;-80
2022/04/02 05:25:18;;;;;;;13.40;12.00;;;0.30;99.90;;;;;;5014036;28;20286;-79
2022/04/02 05:27:45;;;;;;;15.02;11.80;;;0.30;99.90;;;;;;5021006;28;20203;-80
2022/04/02 05:30:13;;;;;;;17.10;11.45;;;0.30;99.90;;;;;;5034307;28;20227;-78
2022/04/02 05:32:40;;;;;;;13.20;11.60;;;0.30;99.90;;;;;;5027044;28;20239;-80
2022/04/02 05:35:08;;;;;;;14.45;12.35;;;0.30;99.90;;;;;;5013865;28;20215;-80
2022/04/02 05:37:35;;;;;;;8.80;7.82;;;0.30;99.90;;;;;;5019587;28;20203;-80
2022/04/02 05:40:04;;;;;;;15.95;14.23;;;0.30;99.90;;;;;;5032933;28;20219;-80
2022/04/02 05:42:31;;;;;;;12.55;11.10;;;0.40;99.90;;;;;;5029084;28;20251;-79
2022/04/02 05:44:58;;;;;;;9.25;8.50;;;0.30;99.90;;;;;;5014669;28;20241;-79
2022/04/02 05:47:24;;;;;;;10.10;7.32;;;0.30;99.90;;;;;;5017929;28;20200;-79
2022/04/02 05:49:52;;;;;;;8.65;7.57;;;0.20;99.90;;;;;;5034351;28;20238;-80
2022/04/02 05:52:19;;;;;;;8.00;7.15;;;0.10;99.90;;;;;;5031874;28;20230;-80
2022/04/02 05:54:45;;;;;;;14.90;10.20;;;0.10;99.90;;;;;;5013622;28;20235;-81
2022/04/02 05:57:14;;;;;;;10.13;8.88;;;0.20;99.90;;;;;;5026454;28;20206;-80
2022/04/02 05:59:41;;;;;;;13.80;11.32;;;0.20;99.90;;;;;;5034271;28;20234;-80
2022/04/02 06:02:08;;;;;;;10.48;9.25;;;0.20;99.90;;;;;;5022230;28;20232;-80
2022/04/02 06:04:35;;;;;;;11.48;10.27;;;0.20;99.90;;;;;;5014352;28;20228;-80
2022/04/02 06:07:02;;;;;;;10.38;9.43;;;0.40;99.90;;;;;;5023394;28;20193;-80
2022/04/02 06:09:29;;;;;;;12.27;9.02;;;0.50;99.90;;;;;;5033368;28;20227;-80
2022/04/02 06:11:55;;;;;;;13.52;12.18;;;0.50;99.90;;;;;;5024022;28;20222;-80
2022/04/02 06:14:24;;;;;;;12.60;11.38;;;0.50;99.90;;;;;;5014400;28;20204;-79
2022/04/02 06:16:50;;;;;;;11.05;9.93;;;0.50;99.90;;;;;;5020644;28;20202;-80
2022/04/02 06:19:19;;;;;;;12.27;11.07;;;0.50;99.90;;;;;;5033381;28;20226;-80
2022/04/02 06:21:46;;;;;;;11.90;10.57;;;0.40;99.90;;;;;;5022638;28;20206;-80
2022/04/02 06:24:13;;;;;;;14.98;10.93;;;0.40;99.90;;;;;;5012954;28;20224;-80
2022/04/02 06:26:40;;;;;;;5.88;5.18;;;0.40;99.90;;;;;;5029110;28;20210;-80
2022/04/02 06:29:06;;;;;;;10.68;9.13;;;0.40;99.90;;;;;;5031027;28;20222;-81
2022/04/02 06:31:35;;;;;;;10.85;9.82;;;0.40;99.90;;;;;;5012161;28;20204;-80
2022/04/02 06:34:02;;;;;;;11.40;10.25;;;0.40;99.90;;;;;;5003125;28;20222;-80
2022/04/02 06:36:29;;;;;;;9.88;9.00;;;0.40;99.90;;;;;;5014191;28;20210;-80
2022/04/02 06:38:56;;;;;;;10.65;9.70;;;0.40;99.90;;;;;;5019564;28;20228;-80
2022/04/02 06:41:23;;;;;;;12.80;11.45;;;0.40;99.90;;;;;;5005882;28;20255;-79
2022/04/02 06:43:50;;;;;;;12.60;10.45;;;0.50;99.90;;;;;;5000216;28;20211;-79
2022/04/02 06:46:17;;;;;;;10.15;9.05;;;0.50;99.90;;;;;;5010601;28;20230;-79
2022/04/02 06:48:45;;;;;;;11.85;9.30;;;0.60;99.90;;;;;;5019857;28;20234;-79
2022/04/02 06:51:12;;;;;;;11.85;9.55;;;0.60;99.90;;;;;;5008208;28;20581;-79
2022/04/02 06:53:39;;;;;;;11.77;7.32;;;0.60;99.90;;;;;;5005345;28;20211;-81
2022/04/02 06:56:06;;;;;;;10.57;8.50;;;0.60;99.90;;;;;;5021532;28;20201;-78
2022/04/02 06:58:35;;;;;;;10.05;8.80;;;0.40;99.90;;;;;;5020122;28;20210;-78
2022/04/02 07:01:02;;;;;;;9.63;8.65;;;0.50;99.90;;;;;;5004178;28;20290;-81
2022/04/02 07:03:29;;;;;;;7.28;6.65;;;0.60;99.90;;;;;;5000937;28;20210;-79
2022/04/02 07:05:57;;;;;;;8.20;7.40;;;0.60;99.90;;;;;;5006313;28;20230;-79
2022/04/02 07:08:23;;;;;;;11.88;10.60;;;0.70;99.90;;;;;;5001775;28;20208;-80
2022/04/02 07:10:50;;;;;;;9.00;8.13;;;0.80;99.90;;;;;;5019441;28;20214;-79
2022/04/02 07:13:17;;;;;;;9.60;8.60;;;0.80;99.90;;;;;;5021439;28;20210;-80
2022/04/02 07:15:44;;;;;;;8.18;7.38;;;0.80;99.90;;;;;;5007788;28;20200;-80
2022/04/02 07:18:11;;;;;;;9.73;7.93;;;0.70;99.90;;;;;;5002858;28;20204;-80
2022/04/02 07:20:40;;;;;;;11.30;9.88;;;0.70;99.90;;;;;;5019714;28;20231;-79
2022/04/02 07:23:10;;;;;;;10.93;8.73;;;0.60;99.90;;;;;;5027232;28;20218;-80
2022/04/02 07:25:37;;;;;;;10.63;9.02;;;0.60;99.90;;;;;;5007492;28;20278;-80
2022/04/02 07:28:05;;;;;;;8.73;7.70;;;0.60;99.90;;;;;;5005072;28;20269;-80
2022/04/02 07:30:33;;;;;;;11.48;8.82;;;0.50;99.90;;;;;;5023191;28;20234;-80
2022/04/02 07:33:00;;;;;;;10.00;8.57;;;0.50;99.90;;;;;;5031592;28;20198;-80
2022/04/02 07:35:34;;;;;;;8.18;7.35;;;0.60;99.90;;;;;;5015834;28;20200;-81
2022/04/02 07:38:04;;;;;;;9.95;9.05;;;0.70;99.90;;;;;;5006656;28;20200;-78
2022/04/02 07:40:38;;;;;;;8.52;7.50;;;0.70;99.90;;;;;;5018794;28;20227;-79
2022/04/02 07:43:15;;;;;;;9.85;8.75;;;0.60;99.90;;;;;;5009948;28;20203;-77
2022/04/02 07:45:45;;;;;;;8.63;7.72;;;0.70;99.90;;;;;;5001559;28;20224;-78
2022/04/02 07:48:12;;;;;;;8.50;7.10;;;0.70;99.90;;;;;;5011826;28;20201;-79
2022/04/02 07:50:43;;;;;;;8.40;7.60;;;0.80;99.90;;;;;;5019910;28;20251;-79
2022/04/02 07:53:19;;;;;;;10.95;9.95;;;0.60;99.90;;;;;;5006129;28;20208;-79
2022/04/02 07:55:50;;;;;;;9.32;8.43;;;0.70;99.90;;;;;;5013276;28;20202;-79
2022/04/02 07:58:20;;;;;;;12.70;10.50;;;0.70;99.90;;;;;;5014710;28;20247;-79
2022/04/02 08:00:54;;;;;;;7.85;7.10;;;0.70;99.90;;;;;;5019260;28;20226;-79
2022/04/02 08:03:23;;;;;;;9.95;7.57;;;0.60;99.90;;;;;;5007612;28;20207;-78
2022/04/02 08:05:50;;;;;;;8.85;8.05;;;0.50;99.90;;;;;;5009219;28;20586;-80
2022/04/02 08:08:18;;;;;;;8.73;7.93;;;0.50;99.90;;;;;;5010574;28;20207;-80
2022/04/02 08:10:48;;;;;;;10.70;9.60;;;0.50;99.90;;;;;;5005610;28;20639;-79
2022/04/02 08:13:15;;;;;;;13.38;8.68;;;0.70;99.90;;;;;;5007237;28;20206;-79
2022/04/02 08:15:42;;;;;;;10.00;8.85;;;0.70;99.90;;;;;;5010011;28;20192;-80
2022/04/02 08:18:10;;;;;;;9.38;8.35;;;0.70;99.90;;;;;;5013334;28;20216;-80
2022/04/02 08:20:38;;;;;;;8.73;7.30;;;0.80;99.90;;;;;;5009900;28;20250;-80
2022/04/02 08:23:05;;;;;;;10.23;8.50;;;0.90;99.90;;;;;;5026373;28;20210;-80
2022/04/02 08:25:35;;;;;;;9.80;8.27;;;1.00;99.90;;;;;;5030575;28;20223;-78
2022/04/02 08:28:13;;;;;;;7.72;6.93;;;0.90;99.90;;;;;;5015025;28;20207;-79
2022/04/02 08:30:48;;;;;;;6.55;5.93;;;0.90;99.90;;;;;;5010320;28;20219;-78
2022/04/02 08:33:28;;;;;;;8.32;7.47;;;0.60;99.90;;;;;;5023150;28;20210;-78
2022/04/02 08:36:04;;;;;;;8.48;7.70;;;0.60;99.90;;;;;;5021672;28;20226;-78
2022/04/02 08:38:41;;;;;;;8.02;5.78;;;0.70;99.90;;;;;;5020335;28;20198;-79
2022/04/02 08:41:48;;;;;;;11.07;9.00;;;0.60;99.90;;;;;;5004538;28;20207;-79
2022/04/02 08:44:49;;;;;;;15.43;8.32;;;0.60;99.90;;;;;;5021257;28;20215;-79
2022/04/02 08:47:36;;;;;;;10.35;8.60;;;0.80;99.90;;;;;;5024756;28;20221;-79
2022/04/02 08:50:08;;;;;;;8.80;8.00;;;0.80;99.90;;;;;;5026462;28;20238;-80
2022/04/02 08:52:51;;;;;;;12.05;7.82;;;0.80;99.90;;;;;;5027860;28;20207;-80
2022/04/02 08:55:19;;;;;;;7.65;6.95;;;0.90;99.90;;;;;;5029236;28;20299;-80
2022/04/02 08:58:10;;;;;;;9.15;8.25;;;1.00;99.90;;;;;;5029147;28;20211;-80
2022/04/02 09:00:44;;;;;;;8.65;7.40;;;1.00;99.90;;;;;;5024213;28;20227;-80
2022/04/02 09:03:55;;;;;;;9.38;8.00;;;0.90;99.90;;;;;;5026838;28;20597;-80
2022/04/02 09:06:51;;;;;;;10.05;7.35;;;0.90;99.90;;;;;;5006192;28;20225;-80
2022/04/02 09:09:37;;;;;;;9.57;6.88;;;0.80;99.90;;;;;;5033115;28;20237;-80
2022/04/02 09:12:36;;;;;;;10.63;9.63;;;0.80;99.90;;;;;;5029737;28;20213;-79
2022/04/02 09:15:09;;;;;;;6.85;5.47;;;0.90;99.90;;;;;;5032572;28;20246;-80
2022/04/02 09:17:40;;;;;;;9.07;7.38;;;0.90;99.90;;;;;;5034722;28;20210;-80
2022/04/02 09:20:21;;;;;;;10.45;9.43;;;1.00;99.90;;;;;;5057643;22;20241;-77
2022/04/02 09:23:09;;;;;;;12.07;9.30;;;1.10;99.90;;;;;;5034071;28;20206;-77
2022/04/02 09:26:06;;;;;;;9.82;8.75;;;1.00;99.90;;;;;;5033364;28;20244;-77
2022/04/02 09:29:06;;;;;;;11.15;10.00;;;1.00;99.90;;;;;;5034439;28;20208;-78
2022/04/02 09:32:12;;;;;;;10.18;7.90;;;0.90;99.90;;;;;;5014821;28;20290;-78
2022/04/02 09:35:32;;;;;;;8.85;8.07;;;0.80;99.90;;;;;;4979694;28;20211;-77
2022/04/02 09:38:40;;;;;;;11.05;9.50;;;0.80;99.90;;;;;;5014318;28;20230;-78
2022/04/02 09:41:29;;;;;;;8.23;7.50;;;0.80;99.90;;;;;;4962793;28;20207;-77
2022/04/02 09:44:08;;;;;;;9.75;8.75;;;0.70;99.90;;;;;;5013883;28;20215;-78
2022/04/02 09:47:01;;;;;;;11.20;9.93;;;0.70;99.90;;;;;;5014301;28;20242;-77
2022/04/02 09:49:35;;;;;;;12.45;11.13;;;0.70;99.90;;;;;;5014218;28;20226;-77
2022/04/02 09:52:06;;;;;;;13.63;9.23;;;0.70;99.90;;;;;;5013859;28;20207;-77
2022/04/02 09:54:39;;;;;;;11.48;10.32;;;0.70;99.90;;;;;;5013838;28;20207;-78
2022/04/02 09:57:13;;;;;;;11.07;8.80;;;0.70;99.90;;;;;;5012783;28;20609;-77
2022/04/02 10:00:05;;;;;;;12.95;9.50;;;0.70;99.90;;;;;;5013600;28;20235;-78
2022/04/02 10:02:59;;;;;;;12.35;11.00;;;0.80;99.90;;;;;;5015510;28;20984;-77
2022/04/02 10:05:39;;;;;;;12.57;10.55;;;0.80;99.90;;;;;;5028998;28;20226;-77
2022/04/02 10:08:14;;;;;;;11.55;10.40;;;0.80;99.90;;;;;;5033057;28;20209;-78
2022/04/02 10:10:45;;;;;;;7.90;6.72;;;0.60;99.90;;;;;;5018236;28;20226;-77
2022/04/02 10:13:14;;;;;;;11.77;9.40;;;0.60;99.90;;;;;;5013671;28;20208;-77
2022/04/02 10:15:43;;;;;;;6.40;5.80;;;0.50;99.90;;;;;;5016167;28;20301;-77
2022/04/02 10:18:12;;;;;;;16.55;10.88;;;0.70;99.90;;;;;;5013855;28;20238;-77
2022/04/02 10:20:40;;;;;;;13.40;9.77;;;0.60;99.90;;;;;;5028998;28;20713;-77
2022/04/02 10:23:16;;;;;;;11.90;10.68;;;0.70;99.90;;;;;;5034448;28;20217;-78
2022/04/02 10:25:55;;;;;;;10.63;9.40;;;0.80;99.90;;;;;;5017151;28;20219;-77
2022/04/02 10:28:28;;;;;;;12.57;11.27;;;0.80;99.90;;;;;;5012915;28;20229;-78
2022/04/02 10:30:57;;;;;;;9.10;8.32;;;0.90;99.90;;;;;;5030182;28;20775;-78
2022/04/02 10:33:29;;;;;;;10.45;9.32;;;0.80;99.90;;;;;;5018232;28;20203;-77
2022/04/02 10:35:57;;;;;;;12.10;9.52;;;0.80;99.90;;;;;;5013996;28;20200;-77
2022/04/02 10:38:41;;;;;;;11.63;10.43;;;0.90;99.90;;;;;;5027463;28;20203;-78
2022/04/02 10:41:10;;;;;;;11.57;10.40;;;1.00;99.90;;;;;;5027792;28;20207;-77
2022/04/02 10:43:45;;;;;;;13.63;10.05;;;1.10;99.90;;;;;;5014377;28;20218;-78
2022/04/02 10:46:13;;;;;;;11.90;10.82;;;1.10;99.90;;;;;;5013830;28;20222;-77
2022/04/02 10:48:57;;;;;;;16.90;10.80;;;1.10;99.90;;;;;;5012675;28;20211;-77
2022/04/02 10:51:25;;;;;;;12.40;10.32;;;1.00;99.90;;;;;;5020992;28;20252;-78
2022/04/02 10:54:01;;;;;;;10.80;9.75;;;0.90;99.90;;;;;;5032970;28;20217;-78
2022/04/02 10:56:34;;;;;;;12.75;11.45;;;1.00;99.90;;;;;;5024936;28;20195;-78
2022/04/02 10:59:01;;;;;;;11.75;9.90;;;1.10;99.90;;;;;;5015120;28;20215;-78
2022/04/02 11:01:28;;;;;;;12.40;11.15;;;1.10;99.90;;;;;;5021785;28;20198;-78
2022/04/02 11:03:56;;;;;;;11.90;10.70;;;1.10;99.90;;;;;;5034956;28;20229;-78
2022/04/02 11:06:46;;;;;;;11.13;10.15;;;1.00;99.90;;;;;;5035278;28;20215;-78
2022/04/02 11:12:15;;;;;;;9.85;8.45;;;1.10;99.90;;;;;;5016239;28;20215;-78
2022/04/02 11:14:44;;;;;;;7.43;6.63;;;1.30;99.90;;;;;;5016864;28;20261;-78
2022/04/02 11:17:29;;;;;;;11.75;10.52;;;1.10;99.90;;;;;;5022351;28;20208;-78
2022/04/02 11:20:03;;;;;;;8.32;7.38;;;1.10;99.90;;;;;;5020567;28;20262;-78
2022/04/02 11:22:36;;;;;;;10.50;9.43;;;1.10;99.90;;;;;;5017613;28;20202;-78
2022/04/02 11:25:08;;;;;;;10.20;9.35;;;1.10;99.90;;;;;;5015068;28;20203;-78
2022/04/02 11:27:38;;;;;;;9.98;8.27;;;1.00;99.90;;;;;;5015529;28;20242;-78
2022/04/02 11:30:08;;;;;;;12.73;10.38;;;0.90;99.90;;;;;;5017215;28;20227;-78
2022/04/02 11:32:41;;;;;;;12.65;10.05;;;0.90;99.90;;;;;;5016689;28;20215;-78
2022/04/02 11:35:09;;;;;;;13.75;10.18;;;1.00;99.90;;;;;;5037830;28;20203;-78
2022/04/02 11:37:46;;;;;;;12.13;11.02;;;1.00;99.90;;;;;;5039405;28;20572;-79
2022/04/02 11:40:16;;;;;;;12.57;9.60;;;1.20;99.90;;;;;;5020164;28;20648;-78
2022/04/02 11:42:47;;;;;;;10.20;9.13;;;1.30;99.90;;;;;;5020375;28;20590;-78
2022/04/02 11:45:18;;;;;;;14.23;10.48;;;1.40;99.90;;;;;;5020390;28;20207;-78
2022/04/02 11:47:49;;;;;;;12.27;10.75;;;1.50;99.90;;;;;;5034003;28;20223;-78
2022/04/02 11:50:24;;;;;;;13.60;11.73;;;1.80;99.90;;;;;;5039524;28;20236;-78
2022/04/02 11:52:53;;;;;;;11.98;10.20;;;2.00;99.90;;;;;;5039431;28;20251;-78
2022/04/02 11:55:21;;;;;;;12.45;11.15;;;2.30;99.90;;;;;;5039493;28;20203;-78
2022/04/02 11:57:59;;;;;;;11.07;10.00;;;2.70;99.90;;;;;;5039796;28;20228;-79
2022/04/02 12:00:26;;;;;;;14.50;10.82;;;3.00;99.90;;;;;;5039597;28;20615;-80
2022/04/02 12:02:53;;;;;;;9.35;8.35;;;3.10;99.90;;;;;;5040086;28;20212;-80
2022/04/02 12:05:21;;;;;;;11.27;10.18;;;3.10;99.90;;;;;;5024852;28;20205;-79
2022/04/02 12:07:49;;;;;;;8.95;8.15;;;2.80;99.90;;;;;;5031946;28;20236;-79
2022/04/02 12:10:17;;;;;;;9.50;8.52;;;2.70;99.90;;;;;;5039761;28;20241;-79
2022/04/02 12:12:46;;;;;;;11.98;10.60;;;2.40;99.90;;;;;;5027115;28;20211;-79
2022/04/02 12:15:15;;;;;;;12.32;11.00;;;2.30;99.90;;;;;;5020174;28;20298;-80
2022/04/02 12:17:43;;;;;;;10.45;9.45;;;2.20;99.90;;;;;;5030118;28;20738;-78
2022/04/02 12:20:11;;;;;;;12.88;11.50;;;1.80;99.90;;;;;;5038446;28;20235;-79
2022/04/02 12:22:40;;;;;;;12.18;10.93;;;1.90;99.90;;;;;;5027574;28;20235;-79
2022/04/02 12:25:10;;;;;;;11.45;10.35;;;1.90;99.90;;;;;;5018974;28;20685;-79
2022/04/02 12:27:39;;;;;;;11.95;10.40;;;1.80;99.90;;;;;;5018852;28;20223;-79
2022/04/02 12:30:09;;;;;;;11.30;9.80;;;1.80;99.90;;;;;;5019313;28;20235;-80
2022/04/02 12:32:38;;;;;;;12.07;10.88;;;2.10;99.90;;;;;;5018595;28;20192;-79
2022/04/02 12:35:06;;;;;;;12.27;11.10;;;2.20;99.90;;;;;;5021937;28;20651;-80
2022/04/02 12:37:43;;;;;;;12.60;10.85;;;2.20;99.90;;;;;;5019841;28;20200;-78
2022/04/02 12:40:19;;;;;;;11.40;10.13;;;2.10;99.90;;;;;;5025588;28;20305;-80
2022/04/02 12:42:47;;;;;;;11.93;10.68;;;2.10;99.90;;;;;;5038225;28;20218;-80
2022/04/02 12:45:18;;;;;;;12.48;11.27;;;2.10;99.90;;;;;;5036850;28;20234;-80
2022/04/02 12:47:57;;;;;;;15.98;14.38;;;1.90;99.90;;;;;;5036998;28;20233;-79
2022/04/02 12:50:25;;;;;;;12.88;10.40;;;1.90;99.90;;;;;;5029772;28;20228;-78
2022/04/02 12:52:52;;;;;;;13.48;11.05;;;1.80;99.90;;;;;;5019564;28;20208;-79
2022/04/02 12:55:20;;;;;;;13.10;11.85;;;1.80;99.90;;;;;;5031577;28;20577;-80
2022/04/02 12:58:07;;;;;;;12.38;11.10;;;2.00;99.90;;;;;;5034637;28;20195;-81
2022/04/02 13:00:37;;;;;;;13.73;12.35;;;2.10;99.90;;;;;;5018055;28;20274;-79
2022/04/02 13:03:05;;;;;;;12.63;10.63;;;2.10;99.90;;;;;;5029096;28;20665;-79
2022/04/02 13:05:48;;;;;;;15.30;10.63;;;2.10;99.90;;;;;;5045691;28;20207;-80